شیراز, ایران

08:12 AM IRDT on ژوئیه 25, 2014 (GMT +0430)
Shahid Dastghaib International (OISS) Elev 4869 ft | 29.54 °N, 52.59 °E | Change Station

Current weather conditions updated 12 minutes ago

Clear
صاف
81 °F
Feels Like 81 °F
N
5
باد متغير باد from شمال غربی

Today is forecast to be nearly the same temperature as yesterday.

امروز
High -- | Low -- °F
--% Chance of Precip.
دیروز
High -- | Low -- °F
Precip. -- در
6:15 AM 7:56 PM
Waning Crescent, 3% visible
فشار 29.86 در
ديد 4.3 مايل، ميل (در برابر كيلومتر
ابری صاف
قطره شبنم 43 °F
رطوبت 26%
بارش باران 0.00 در
برف عمیق Not available.
مادون قرمز 1 out of 12
Pollen Not available.
تمیزی هوا Not available.
Flu Activity Not available.
METAR OISS 250330Z 32004KT 7000 SKC 27/06 Q1011 A2987

More Conditions Fewer Conditions

فشار 29.86 در
ديد 4.3 مايل، ميل (در برابر كيلومتر
ابری صاف
قطره شبنم 43 °F
رطوبت 26%
بارش باران 0.00 در
برف عمیق Not available.
مادون قرمز 1 out of 12
Pollen Not available.
تمیزی هوا Not available.
Flu Activity Not available.
METAR OISS 250330Z 32004KT 7000 SKC 27/06 Q1011 A2987

More Conditions Fewer Conditions

10-Day Weather Forecast

Almanac

ستاره شناسی

Jul. 25, 2014 Rise Set
وقت حقیقی 6:15 AM IRDT 7:56 PM IRDT
تاریک و روشن اجتماعی 5:49 AM IRDT 8:23 PM IRDT
تاریک روشن دریایی 5:17 AM IRDT 8:54 PM IRDT
شفق و فلق نجومی 4:44 AM IRDT 9:27 PM IRDT
ماه 4:51 AM IRDT 6:40 PM IRDT
میزان روشنایی روز 14h 33m
طول روز
13h 41m
Tomorrow will be 1m 10s shorter.
Waning Crescent, 3% of the Moon is Illuminated
Jul 24
Waning Crescent
Jul 26
New
Aug 3
ربع اول
Aug 10
ماه کامل
Aug 17
ربع آخر

Yesterday's Extremes

Country Highs Country Lows

Community

WunderPhotos

Upload Photos

1,737,231 photos uploaded!

Nearby

تمیزی هوا

Not available.

عمق برف

Not available.

Earthquake Activity

شهر Distance Mag. Time & Date
No recent earthquake activity has been reported nearby.
Minimum magnitude displayed is 2.5.

Coastal Water Temperatures

منطقه درجه حرارت
No Stations Reporting

Nearby Weather Stations

There are no personal weather stations in this area.